createdAt,value
2019-03-16T00:01:35.797Z,94.90
2019-03-16T00:04:04.053Z,94.70
2019-03-16T00:06:32.277Z,95.10
2019-03-16T00:09:00.827Z,95.20
2019-03-16T00:11:29.040Z,95.00
2019-03-16T00:13:57.273Z,95.40
2019-03-16T00:16:25.492Z,94.90
2019-03-16T00:18:53.728Z,95.30
2019-03-16T00:21:21.948Z,95.30
2019-03-16T00:23:50.482Z,95.50
2019-03-16T00:26:18.701Z,95.90
2019-03-16T00:28:46.947Z,96.00
2019-03-16T00:31:15.160Z,95.70
2019-03-16T00:33:43.401Z,95.60
2019-03-16T00:36:11.616Z,95.60
2019-03-16T00:38:39.851Z,95.70
2019-03-16T00:41:08.083Z,95.80
2019-03-16T00:43:36.589Z,95.90
2019-03-16T00:46:04.808Z,95.90
2019-03-16T00:48:33.357Z,95.90
2019-03-16T00:51:01.829Z,95.30
2019-03-16T00:53:30.069Z,95.20
2019-03-16T00:55:58.293Z,95.30
2019-03-16T00:58:26.867Z,95.00
2019-03-16T01:00:55.089Z,95.10
2019-03-16T01:03:23.317Z,95.20
2019-03-16T01:05:51.541Z,95.10
2019-03-16T01:08:19.771Z,95.70
2019-03-16T01:10:47.995Z,95.30
2019-03-16T01:13:35.657Z,95.00
2019-03-16T01:16:03.973Z,94.70
2019-03-16T01:18:32.205Z,94.80
2019-03-16T01:21:00.420Z,94.90
2019-03-16T01:23:28.665Z,94.90
2019-03-16T01:25:56.889Z,95.00
2019-03-16T01:28:25.161Z,95.80
2019-03-16T01:30:53.384Z,95.20
2019-03-16T01:33:21.619Z,95.30
2019-03-16T01:35:49.836Z,95.50
2019-03-16T01:38:18.328Z,95.60
2019-03-16T01:40:46.551Z,95.00
2019-03-16T01:43:14.848Z,95.30
2019-03-16T01:45:43.078Z,95.50
2019-03-16T01:48:11.355Z,95.10
2019-03-16T01:50:39.921Z,95.40
2019-03-16T01:53:08.135Z,95.20
2019-03-16T01:55:36.373Z,94.90
2019-03-16T01:58:04.588Z,94.60
2019-03-16T02:00:33.124Z,94.50
2019-03-16T02:03:01.345Z,94.60
2019-03-16T02:05:29.578Z,94.60
2019-03-16T02:07:57.876Z,94.30
2019-03-16T02:10:26.284Z,94.70
2019-03-16T02:12:54.501Z,94.60
2019-03-16T02:15:22.988Z,94.10
2019-03-16T02:17:51.213Z,94.20
2019-03-16T02:20:19.446Z,94.30
2019-03-16T02:22:47.673Z,94.60
2019-03-16T02:25:15.909Z,94.60
2019-03-16T02:27:44.128Z,94.50
2019-03-16T02:30:12.648Z,94.40
2019-03-16T02:32:40.936Z,94.60
2019-03-16T02:35:09.231Z,94.50
2019-03-16T02:37:37.464Z,94.30
2019-03-16T02:40:08.465Z,94.20
2019-03-16T02:42:36.693Z,94.30
2019-03-16T02:45:07.274Z,94.30
2019-03-16T02:47:35.489Z,94.20
2019-03-16T02:50:05.962Z,93.80
2019-03-16T02:52:34.197Z,93.30
2019-03-16T02:55:02.416Z,93.40
2019-03-16T02:57:30.633Z,93.20
2019-03-16T02:59:58.864Z,92.90
2019-03-16T03:02:27.092Z,93.00
2019-03-16T03:04:55.594Z,92.90
2019-03-16T03:07:23.824Z,93.10
2019-03-16T03:09:52.037Z,93.20
2019-03-16T03:12:20.266Z,92.80
2019-03-16T03:14:48.804Z,93.20
2019-03-16T03:17:17.024Z,93.10
2019-03-16T03:19:45.549Z,93.40
2019-03-16T03:22:13.773Z,93.40
2019-03-16T03:24:44.229Z,93.40
2019-03-16T03:27:11.953Z,93.20
2019-03-16T03:29:40.185Z,93.40
2019-03-16T03:32:08.410Z,93.40
2019-03-16T03:34:36.654Z,93.60
2019-03-16T03:37:04.870Z,93.20
2019-03-16T03:39:33.101Z,93.40
2019-03-16T03:42:01.504Z,93.20
2019-03-16T03:44:29.733Z,93.40
2019-03-16T03:46:58.229Z,93.70
2019-03-16T03:49:26.708Z,94.10
2019-03-16T03:51:54.929Z,93.70
2019-03-16T03:54:23.155Z,93.60
2019-03-16T03:56:51.394Z,92.90
2019-03-16T03:59:19.600Z,93.00
2019-03-16T04:01:47.841Z,93.10
2019-03-16T04:04:16.309Z,93.20
2019-03-16T04:06:44.671Z,92.90
2019-03-16T04:09:12.903Z,93.20
2019-03-16T04:11:41.138Z,93.20
2019-03-16T04:14:09.413Z,92.90
2019-03-16T04:16:37.638Z,93.40
2019-03-16T04:19:05.869Z,93.50
2019-03-16T04:21:34.093Z,93.20
2019-03-16T04:24:02.324Z,93.70
2019-03-16T04:26:30.545Z,93.60
2019-03-16T04:28:58.761Z,93.80
2019-03-16T04:31:27.002Z,93.70
2019-03-16T04:33:55.220Z,94.10
2019-03-16T04:36:23.461Z,94.20
2019-03-16T04:38:51.672Z,94.20
2019-03-16T04:41:19.905Z,94.70
2019-03-16T04:43:48.124Z,94.50
2019-03-16T04:46:16.361Z,94.30
2019-03-16T04:48:44.666Z,94.30
2019-03-16T04:51:12.989Z,93.80
2019-03-16T04:53:41.218Z,93.60
2019-03-16T04:56:09.457Z,93.70
2019-03-16T04:58:37.674Z,93.80
2019-03-16T05:01:05.901Z,93.70
2019-03-16T05:03:34.121Z,93.50
2019-03-16T05:06:02.665Z,93.40
2019-03-16T05:08:30.884Z,92.90
2019-03-16T05:10:59.168Z,93.20
2019-03-16T05:13:27.664Z,92.80
2019-03-16T05:15:55.913Z,93.10
2019-03-16T05:18:24.168Z,93.20
2019-03-16T05:20:52.400Z,93.10
2019-03-16T05:23:20.620Z,92.40
2019-03-16T05:25:48.852Z,92.50
2019-03-16T05:28:17.076Z,92.40
2019-03-16T05:30:45.314Z,92.40
2019-03-16T05:33:13.537Z,93.00
2019-03-16T05:35:41.777Z,92.70
2019-03-16T05:38:09.997Z,92.80
2019-03-16T05:40:38.296Z,92.80
2019-03-16T05:43:06.529Z,92.40
2019-03-16T05:45:35.090Z,92.30
2019-03-16T05:48:03.313Z,92.10
2019-03-16T05:50:31.545Z,92.00
2019-03-16T05:52:59.775Z,91.90
2019-03-16T05:55:28.009Z,92.30
2019-03-16T05:57:56.283Z,92.10
2019-03-16T06:00:24.788Z,91.80
2019-03-16T06:02:53.021Z,91.80
2019-03-16T06:05:21.297Z,91.60
2019-03-16T06:07:49.613Z,91.90
2019-03-16T06:10:18.203Z,92.20
2019-03-16T06:12:50.678Z,92.40
2019-03-16T06:15:18.964Z,92.40
2019-03-16T06:17:47.617Z,92.50
2019-03-16T06:20:16.188Z,92.50
2019-03-16T06:22:44.662Z,92.50
2019-03-16T06:25:12.890Z,92.30
2019-03-16T06:27:41.120Z,91.70
2019-03-16T06:30:14.489Z,91.70
2019-03-16T06:32:42.768Z,91.30
2019-03-16T06:35:23.844Z,91.40
2019-03-16T06:37:40.953Z,91.70
2019-03-16T06:40:10.613Z,91.90
2019-03-16T06:42:38.855Z,91.90
2019-03-16T06:45:09.008Z,92.00
2019-03-16T06:47:37.236Z,91.30
2019-03-16T06:50:09.000Z,91.10
2019-03-16T06:52:37.235Z,91.00
2019-03-16T06:55:06.432Z,90.70
2019-03-16T06:57:34.714Z,91.10
2019-03-16T07:00:03.897Z,90.90
2019-03-16T07:02:32.128Z,90.80
2019-03-16T07:05:00.483Z,91.00
2019-03-16T07:07:28.864Z,91.10
2019-03-16T07:09:57.085Z,91.00
2019-03-16T07:12:25.617Z,90.50
2019-03-16T07:14:53.853Z,90.30
2019-03-16T07:17:22.086Z,90.60
2019-03-16T07:19:50.313Z,90.40
2019-03-16T07:22:18.870Z,90.00
2019-03-16T07:24:47.110Z,90.80
2019-03-16T07:27:25.706Z,90.70
2019-03-16T07:29:45.293Z,90.50
2019-03-16T07:32:13.525Z,90.90
2019-03-16T07:34:42.076Z,91.00
2019-03-16T07:37:10.567Z,90.50
2019-03-16T07:39:38.864Z,90.40
2019-03-16T07:42:07.416Z,90.50
2019-03-16T07:44:35.648Z,90.60
2019-03-16T07:47:03.913Z,90.70
2019-03-16T07:49:33.501Z,90.60
2019-03-16T07:52:02.083Z,90.70
2019-03-16T07:54:31.350Z,90.70
2019-03-16T07:56:59.739Z,90.50
2019-03-16T07:59:27.976Z,90.60
2019-03-16T08:01:56.192Z,90.30
2019-03-16T08:04:24.781Z,90.20
2019-03-16T08:06:53.254Z,90.10
2019-03-16T08:09:21.506Z,89.70
2019-03-16T08:11:50.325Z,89.30
2019-03-16T08:14:18.705Z,89.70
2019-03-16T08:16:46.926Z,89.60
2019-03-16T08:19:15.464Z,87.60
2019-03-16T08:21:43.787Z,87.40
2019-03-16T08:24:11.990Z,88.00
2019-03-16T08:26:40.214Z,88.90
2019-03-16T08:29:08.444Z,89.60
2019-03-16T08:31:36.665Z,89.60
2019-03-16T08:34:04.887Z,89.50
2019-03-16T08:36:33.220Z,88.50
2019-03-16T08:39:01.443Z,89.00
2019-03-16T08:41:29.944Z,88.50
2019-03-16T08:44:17.609Z,88.10
2019-03-16T08:46:45.828Z,86.80
2019-03-16T08:49:14.053Z,87.30
2019-03-16T08:51:42.284Z,88.80
2019-03-16T08:54:10.500Z,90.00
2019-03-16T08:56:39.065Z,91.20
2019-03-16T08:59:07.294Z,91.30
2019-03-16T09:01:35.521Z,91.50
2019-03-16T09:04:03.740Z,91.90
2019-03-16T09:06:32.269Z,92.10
2019-03-16T09:09:00.489Z,92.20
2019-03-16T09:11:28.728Z,92.70
2019-03-16T09:13:56.948Z,92.20
2019-03-16T09:16:25.183Z,92.80
2019-03-16T09:18:53.404Z,91.70
2019-03-16T09:21:21.646Z,91.40
2019-03-16T09:23:49.916Z,91.00
2019-03-16T09:26:18.156Z,90.10
2019-03-16T09:28:46.372Z,89.10
2019-03-16T09:31:14.605Z,87.60
2019-03-16T09:33:42.825Z,88.70
2019-03-16T09:36:11.109Z,88.60
2019-03-16T09:38:39.328Z,87.70
2019-03-16T09:41:07.566Z,86.00
2019-03-16T09:43:35.785Z,86.30
2019-03-16T09:46:04.020Z,86.70
2019-03-16T09:48:32.240Z,85.80
2019-03-16T09:51:00.472Z,85.30
2019-03-16T09:53:28.701Z,83.60
2019-03-16T09:56:16.361Z,83.70
2019-03-16T09:58:44.912Z,85.10
2019-03-16T10:01:15.347Z,84.80
2019-03-16T10:03:43.092Z,83.50
2019-03-16T10:06:11.329Z,84.20
2019-03-16T10:08:39.557Z,83.00
2019-03-16T10:11:07.789Z,82.10
2019-03-16T10:13:36.017Z,81.90
2019-03-16T10:16:04.256Z,79.70
2019-03-16T10:18:32.472Z,79.20
2019-03-16T10:21:00.704Z,79.30
2019-03-16T10:23:28.933Z,78.50
2019-03-16T10:25:57.164Z,77.60
2019-03-16T10:28:25.384Z,76.60
2019-03-16T10:30:53.621Z,74.80
2019-03-16T10:33:21.845Z,75.70
2019-03-16T10:35:50.080Z,73.50
2019-03-16T10:38:18.309Z,68.40
2019-03-16T10:40:46.541Z,68.50
2019-03-16T10:43:14.756Z,68.50
2019-03-16T10:45:42.992Z,69.70
2019-03-16T10:48:11.208Z,71.00
2019-03-16T10:50:39.442Z,69.30
2019-03-16T10:53:07.667Z,70.00
2019-03-16T10:55:35.884Z,69.50
2019-03-16T10:58:04.125Z,69.00
2019-03-16T11:00:32.645Z,67.70
2019-03-16T11:03:00.885Z,67.10
2019-03-16T11:05:29.118Z,68.00
2019-03-16T11:07:57.349Z,66.40
2019-03-16T11:10:25.852Z,68.30
2019-03-16T11:12:54.089Z,67.50
2019-03-16T11:15:22.311Z,69.80
2019-03-16T11:17:50.539Z,69.50
2019-03-16T11:20:19.508Z,66.70
2019-03-16T11:22:47.740Z,67.60
2019-03-16T11:25:15.957Z,66.60
2019-03-16T11:27:44.509Z,67.20
2019-03-16T11:30:14.632Z,65.50
2019-03-16T11:32:42.863Z,65.40
2019-03-16T11:35:11.265Z,64.50
2019-03-16T11:37:39.487Z,63.80
2019-03-16T11:40:15.217Z,64.20
2019-03-16T11:42:43.448Z,63.50
2019-03-16T11:45:12.104Z,63.90
2019-03-16T11:47:40.337Z,63.90
2019-03-16T11:50:10.563Z,64.40
2019-03-16T11:52:38.804Z,63.90
2019-03-16T11:55:09.191Z,63.20
2019-03-16T11:57:37.424Z,63.30
2019-03-16T12:00:11.360Z,63.60
2019-03-16T12:02:39.597Z,64.00
2019-03-16T12:05:11.380Z,63.20
2019-03-16T12:07:39.616Z,62.00
2019-03-16T12:10:12.936Z,63.50
2019-03-16T12:12:41.183Z,63.40
2019-03-16T12:15:11.046Z,59.70
2019-03-16T12:17:39.285Z,60.30
2019-03-16T12:20:12.660Z,59.40
2019-03-16T12:22:40.900Z,59.00
2019-03-16T12:25:09.121Z,57.90
2019-03-16T12:27:37.355Z,58.90
2019-03-16T12:30:10.522Z,58.70
2019-03-16T12:32:38.755Z,59.40
2019-03-16T12:35:07.721Z,59.90
2019-03-16T12:37:35.953Z,60.00
2019-03-16T12:40:07.120Z,59.90
2019-03-16T12:42:35.408Z,59.00
2019-03-16T12:45:05.729Z,58.40
2019-03-16T12:47:33.968Z,58.30
2019-03-16T12:50:02.582Z,58.10
2019-03-16T12:52:30.815Z,58.00
2019-03-16T12:54:59.044Z,58.90
2019-03-16T12:57:27.269Z,56.40
2019-03-16T12:59:55.564Z,56.00
2019-03-16T13:02:24.064Z,56.80
2019-03-16T13:04:52.357Z,55.70
2019-03-16T13:07:20.585Z,55.80
2019-03-16T13:09:48.806Z,53.90
2019-03-16T13:12:17.039Z,54.10
2019-03-16T13:14:45.263Z,54.60
2019-03-16T13:17:13.495Z,55.70
2019-03-16T13:19:41.810Z,55.30
2019-03-16T13:22:10.047Z,56.10
2019-03-16T13:24:38.280Z,55.00
2019-03-16T13:27:06.496Z,56.00
2019-03-16T13:29:34.729Z,56.80
2019-03-16T13:32:02.952Z,56.00
2019-03-16T13:34:31.190Z,54.70
2019-03-16T13:36:59.417Z,55.70
2019-03-16T13:39:27.648Z,55.70
2019-03-16T13:41:55.942Z,55.80
2019-03-16T13:44:24.174Z,55.30
2019-03-16T13:46:52.392Z,54.60
2019-03-16T13:49:20.705Z,54.20
2019-03-16T13:51:49.337Z,53.40
2019-03-16T13:54:17.944Z,52.90
2019-03-16T13:56:46.168Z,53.30
2019-03-16T13:59:14.406Z,54.30
2019-03-16T14:01:42.996Z,53.10
2019-03-16T14:04:11.408Z,52.90
2019-03-16T14:06:39.629Z,52.20
2019-03-16T14:09:08.136Z,52.80
2019-03-16T14:11:36.356Z,53.70
2019-03-16T14:14:04.840Z,53.60
2019-03-16T14:16:33.060Z,53.20
2019-03-16T14:19:01.670Z,52.70
2019-03-16T14:21:29.884Z,53.80
2019-03-16T14:23:58.116Z,53.30
2019-03-16T14:26:26.332Z,53.20
2019-03-16T14:28:54.568Z,53.60
2019-03-16T14:31:22.787Z,53.70
2019-03-16T14:33:51.084Z,54.60
2019-03-16T14:36:19.360Z,54.20
2019-03-16T14:38:47.716Z,54.90
2019-03-16T14:41:16.189Z,55.40
2019-03-16T14:43:44.435Z,55.30
2019-03-16T14:46:12.726Z,56.00
2019-03-16T14:48:40.960Z,54.70
2019-03-16T14:51:09.189Z,54.70
2019-03-16T14:53:37.417Z,54.50
2019-03-16T14:56:05.637Z,54.30
2019-03-16T14:58:33.898Z,54.80
2019-03-16T15:01:02.092Z,55.30
2019-03-16T15:03:30.325Z,55.70
2019-03-16T15:05:58.601Z,55.50
2019-03-16T15:08:26.832Z,55.50
2019-03-16T15:10:55.060Z,56.20
2019-03-16T15:13:23.276Z,56.60
2019-03-16T15:15:51.504Z,57.30
2019-03-16T15:18:19.727Z,56.90
2019-03-16T15:20:47.961Z,57.30
2019-03-16T15:23:16.190Z,56.70
2019-03-16T15:25:44.428Z,56.50
2019-03-16T15:28:12.649Z,56.70
2019-03-16T15:30:50.243Z,56.60
2019-03-16T15:33:11.147Z,57.20
2019-03-16T15:35:39.373Z,57.30
2019-03-16T15:38:07.593Z,57.60
2019-03-16T15:40:38.300Z,57.30
2019-03-16T15:43:05.785Z,57.90
2019-03-16T15:45:34.021Z,56.90
2019-03-16T15:48:02.248Z,73.10
2019-03-16T15:50:30.485Z,74.50
2019-03-16T15:52:58.704Z,75.40
2019-03-16T15:55:26.940Z,62.40
2019-03-16T15:58:07.332Z,60.00
2019-03-16T16:00:25.107Z,63.80
2019-03-16T16:02:53.347Z,64.00
2019-03-16T16:05:21.585Z,63.50
2019-03-16T16:07:49.849Z,59.30
2019-03-16T16:10:19.048Z,58.70
2019-03-16T16:12:47.356Z,62.40
2019-03-16T16:15:15.593Z,54.20
2019-03-16T16:17:44.101Z,59.00
2019-03-16T16:20:13.569Z,52.60
2019-03-16T16:22:41.789Z,52.70
2019-03-16T16:25:13.461Z,53.10
2019-03-16T16:27:41.682Z,55.50
2019-03-16T16:30:16.716Z,54.80
2019-03-16T16:32:44.947Z,55.30
2019-03-16T16:35:16.625Z,55.90
2019-03-16T16:37:44.849Z,56.20
2019-03-16T16:40:14.420Z,57.70
2019-03-16T16:42:42.640Z,58.00
2019-03-16T16:45:12.317Z,57.30
2019-03-16T16:47:40.536Z,56.80
2019-03-16T16:50:11.876Z,57.20
2019-03-16T16:52:40.092Z,57.30
2019-03-16T16:55:08.396Z,57.40
2019-03-16T16:57:36.626Z,63.70
2019-03-16T17:00:08.115Z,57.90
2019-03-16T17:02:36.616Z,56.60
2019-03-16T17:05:06.004Z,56.70
2019-03-16T17:07:34.220Z,56.80
2019-03-16T17:10:03.492Z,56.60
2019-03-16T17:12:31.717Z,57.00
2019-03-16T17:15:00.378Z,57.10
2019-03-16T17:17:35.040Z,56.80
2019-03-16T17:19:58.689Z,57.00
2019-03-16T17:22:26.916Z,57.30
2019-03-16T17:24:55.141Z,57.50
2019-03-16T17:27:23.373Z,57.30
2019-03-16T17:29:51.857Z,57.50
2019-03-16T17:32:20.095Z,57.40
2019-03-16T17:34:48.617Z,57.60
2019-03-16T17:37:16.848Z,57.20
2019-03-16T17:39:45.087Z,57.30
2019-03-16T17:42:13.317Z,57.20
2019-03-16T17:44:41.540Z,57.20
2019-03-16T17:47:09.770Z,57.00
2019-03-16T17:49:37.993Z,56.40
2019-03-16T17:52:06.226Z,56.30
2019-03-16T17:54:34.451Z,56.90
2019-03-16T17:57:02.680Z,56.70
2019-03-16T17:59:30.906Z,56.10
2019-03-16T18:01:59.127Z,56.80
2019-03-16T18:04:27.938Z,56.70
2019-03-16T18:06:56.372Z,56.90
2019-03-16T18:09:24.626Z,56.60
2019-03-16T18:11:53.033Z,57.00
2019-03-16T18:14:21.253Z,56.60
2019-03-16T18:16:49.484Z,57.20
2019-03-16T18:19:17.813Z,56.60
2019-03-16T18:21:46.108Z,56.90
2019-03-16T18:24:14.348Z,56.40
2019-03-16T18:26:42.565Z,57.10
2019-03-16T18:29:10.796Z,57.20
2019-03-16T18:31:39.013Z,56.80
2019-03-16T18:34:07.244Z,57.10
2019-03-16T18:36:35.464Z,57.70
2019-03-16T18:39:05.141Z,57.30
2019-03-16T18:41:33.361Z,57.40
2019-03-16T18:44:01.597Z,58.30
2019-03-16T18:46:29.830Z,58.30
2019-03-16T18:48:58.064Z,58.30
2019-03-16T18:51:26.285Z,58.60
2019-03-16T18:53:54.520Z,58.60
2019-03-16T18:56:22.737Z,58.80
2019-03-16T18:58:50.969Z,59.30
2019-03-16T19:01:19.203Z,60.10
2019-03-16T19:03:47.424Z,59.90
2019-03-16T19:06:15.965Z,60.00
2019-03-16T19:08:44.189Z,60.00
2019-03-16T19:11:12.423Z,60.90
2019-03-16T19:13:40.724Z,60.60
2019-03-16T19:16:08.960Z,60.50
2019-03-16T19:18:37.312Z,60.30
2019-03-16T19:21:05.548Z,60.60
2019-03-16T19:23:33.764Z,61.30
2019-03-16T19:26:01.997Z,61.50
2019-03-16T19:28:30.217Z,61.70
2019-03-16T19:30:58.449Z,61.50
2019-03-16T19:33:26.676Z,61.60
2019-03-16T19:35:55.185Z,61.90
2019-03-16T19:38:23.404Z,61.60
2019-03-16T19:40:51.645Z,61.20
2019-03-16T19:43:19.859Z,60.70
2019-03-16T19:45:48.093Z,60.90
2019-03-16T19:48:16.316Z,61.10
2019-03-16T19:50:44.842Z,60.30
2019-03-16T19:53:13.062Z,60.50
2019-03-16T19:55:41.293Z,60.70
2019-03-16T19:58:09.599Z,60.40
2019-03-16T20:00:37.924Z,60.00
2019-03-16T20:03:06.167Z,59.40
2019-03-16T20:05:34.459Z,59.00
2019-03-16T20:08:02.676Z,59.00
2019-03-16T20:10:30.984Z,58.80
2019-03-16T20:12:59.308Z,58.20
2019-03-16T20:15:27.541Z,58.60
2019-03-16T20:17:55.765Z,58.60
2019-03-16T20:20:24.030Z,58.20
2019-03-16T20:22:52.291Z,58.40
2019-03-16T20:25:20.529Z,58.40
2019-03-16T20:27:48.744Z,58.20
2019-03-16T20:30:25.964Z,58.00
2019-03-16T20:32:50.333Z,58.40
2019-03-16T20:35:17.164Z,58.40
2019-03-16T20:37:45.382Z,58.30
2019-03-16T20:40:16.902Z,58.60
2019-03-16T20:42:45.116Z,58.00
2019-03-16T20:45:13.737Z,58.60
2019-03-16T20:47:42.086Z,58.50
2019-03-16T20:50:18.400Z,58.30
2019-03-16T20:52:47.082Z,57.80
2019-03-16T20:55:15.401Z,57.40
2019-03-16T20:57:43.980Z,56.60
2019-03-16T21:00:13.632Z,56.70
2019-03-16T21:02:41.870Z,56.90
2019-03-16T21:05:10.533Z,56.80
2019-03-16T21:07:38.756Z,56.50
2019-03-16T21:10:09.260Z,56.70
2019-03-16T21:12:37.497Z,56.50
2019-03-16T21:15:14.675Z,56.50
2019-03-16T21:17:42.905Z,55.40
2019-03-16T21:20:15.771Z,55.20
2019-03-16T21:22:43.995Z,55.00
2019-03-16T21:25:13.566Z,56.00
2019-03-16T21:27:41.796Z,55.70
2019-03-16T21:30:22.907Z,55.60
2019-03-16T21:32:51.144Z,54.90
2019-03-16T21:35:19.365Z,55.50
2019-03-16T21:37:47.697Z,54.50
2019-03-16T21:40:16.399Z,54.20
2019-03-16T21:42:44.744Z,53.80
2019-03-16T21:45:13.622Z,53.80
2019-03-16T21:47:42.012Z,53.10
2019-03-16T21:50:12.664Z,53.20
2019-03-16T21:52:44.047Z,53.00
2019-03-16T21:55:12.056Z,53.10
2019-03-16T21:57:40.397Z,52.80
2019-03-16T22:00:13.659Z,52.90
2019-03-16T22:02:42.011Z,52.20
2019-03-16T22:05:10.813Z,52.20
2019-03-16T22:07:39.619Z,51.20
2019-03-16T22:10:12.476Z,51.60
2019-03-16T22:12:40.940Z,52.00
2019-03-16T22:15:15.979Z,50.70
2019-03-16T22:17:44.375Z,50.70
2019-03-16T22:20:15.959Z,50.70
2019-03-16T22:22:44.256Z,50.10
2019-03-16T22:25:12.689Z,49.70
2019-03-16T22:27:41.043Z,49.90
2019-03-16T22:30:14.003Z,49.60
2019-03-16T22:32:42.402Z,49.90
2019-03-16T22:35:10.740Z,48.90
2019-03-16T22:37:39.149Z,48.60
2019-03-16T22:40:12.524Z,48.40
2019-03-16T22:42:41.275Z,48.10
2019-03-16T22:45:11.296Z,48.20
2019-03-16T22:47:39.979Z,48.10
2019-03-16T22:50:13.020Z,47.20
2019-03-16T22:52:41.416Z,47.40
2019-03-16T22:55:10.154Z,47.10
2019-03-16T22:57:40.910Z,46.90
2019-03-16T23:00:14.293Z,46.50
2019-03-16T23:02:42.939Z,46.00
2019-03-16T23:05:11.487Z,46.40
2019-03-16T23:07:40.113Z,45.50
2019-03-16T23:10:12.128Z,44.80
2019-03-16T23:12:40.754Z,45.00
2019-03-16T23:15:12.968Z,44.90
2019-03-16T23:17:41.079Z,44.10
2019-03-16T23:20:10.037Z,44.00
2019-03-16T23:22:38.390Z,43.40
2019-03-16T23:25:08.335Z,41.40
2019-03-16T23:27:36.688Z,41.50
2019-03-16T23:30:07.039Z,41.50
2019-03-16T23:32:35.691Z,41.00
2019-03-16T23:35:04.405Z,41.60
2019-03-16T23:37:32.749Z,40.40
2019-03-16T23:40:01.037Z,41.00
2019-03-16T23:42:29.605Z,42.60
2019-03-16T23:44:57.970Z,42.00
2019-03-16T23:47:26.377Z,41.90
2019-03-16T23:49:54.710Z,42.90
2019-03-16T23:52:23.063Z,42.30
2019-03-16T23:54:51.440Z,42.80
2019-03-16T23:57:19.779Z,44.00
2019-03-16T23:59:48.117Z,43.10
